NCAR-RAP Real-Time Weather Data

Output produced by METARs form (18 August 2018  01:02 UTC)
found at http://weather.rap.ucar.edu/surface/
 
RJBB 180030Z 02008KT 9999 FEW030 BKN/// 25/15 Q1012 NOSIG
RJBB 180000Z 03009KT 9999 FEW030 BKN/// 24/14 Q1012 NOSIG
RJBB 172330Z 04009KT 9999 FEW030 BKN/// 25/14 Q1012 NOSIG
RJBB 172300Z 04009KT 9999 FEW030 BKN/// 24/14 Q1012 NOSIG
RJBB 172230Z 03009KT 9999 FEW030 BKN/// 23/15 Q1012 NOSIG
RJBB 172200Z 06008KT 9999 FEW025 BKN/// 22/16 Q1012 NOSIG
RJBB 172130Z 06007KT 9999 FEW025 BKN/// 22/15 Q1012 NOSIG
RJBB 172100Z 08007KT 9999 FEW025 BKN/// 21/15 Q1012 NOSIG
RJBB 172030Z AUTO 09006KT 9999 NSC 22/16 Q1011 NOSIG
RJBB 172000Z AUTO 08007KT 9999 NSC 22/16 Q1011 NOSIG
RJBB 171930Z AUTO 08006KT 9999 NCD 22/16 Q1011 NOSIG
RJBB 171900Z AUTO 09008KT 9999 NCD 22/16 Q1011 NOSIG
RJBB 171830Z AUTO 05010KT 9999 NCD 22/17 Q1011 NOSIG
RJBB 171800Z AUTO 04011KT 9999 NSC 22/17 Q1011 NOSIG
RJBB 171730Z AUTO 04012KT 9999 NCD 23/17 Q1011 NOSIG
RJBB 171700Z AUTO 04013KT 9999 NSC 23/17 Q1011 NOSIG
RJBB 171630Z AUTO 04013KT 9999 NSC 22/16 Q1011 NOSIG
RJBB 171600Z AUTO 04013KT 9999 NCD 23/16 Q1011 NOSIG
RJBB 171530Z AUTO 04012KT 9999 NCD 23/15 Q1011 NOSIG
RJBB 171500Z AUTO 07006KT 9999 NCD 23/16 Q1011 NOSIG
RJBB 171430Z AUTO 05011KT 9999 NSC 23/16 Q1011 NOSIG
RJBB 171400Z AUTO 04012KT 9999 NSC 24/17 Q1011 NOSIG
RJBB 171330Z 04014KT CAVOK 23/16 Q1011 NOSIG
RJBB 171300Z 04015KT CAVOK 24/15 Q1011 NOSIG
RJBB 171230Z 04015KT CAVOK 24/15 Q1011 NOSIG
RJBB 171200Z 03018KT 9999 FEW030 24/15 Q1011 NOSIG
RJBB 171130Z 02018KT 9999 FEW030 24/15 Q1011 NOSIG
RJBB 171100Z 02020KT 9999 FEW030 25/15 Q1010 NOSIG
RJBB 171030Z 02021KT 9999 FEW030 25/14 Q1010 NOSIG
RJBB 171000Z 01022KT 9999 FEW030 26/14 Q1010 NOSIG
RJBB 170930Z 01014KT 9999 FEW030 26/13 Q1009 NOSIG
RJBB 170900Z 01013KT 9999 FEW030 27/13 Q1009 NOSIG
RJBB 170830Z 02017KT 9999 FEW030 SCT/// 27/14 Q1009 NOSIG
RJBB 170800Z 02016KT 9999 FEW030 BKN/// 28/14 Q1009 NOSIG
RJBB 170730Z 02014KT 9999 FEW030 BKN/// 28/13 Q1009 NOSIG
RJBB 170700Z 03017KT 9999 FEW030 BKN/// 28/14 Q1009 NOSIG
RJBB 170630Z 02014KT 9999 FEW030 BKN/// 29/14 Q1009 NOSIG
RJBB 170600Z 04016KT 9999 FEW030 BKN/// 29/15 Q1009 NOSIG
RJBB 170530Z 03016KT 9999 FEW035 BKN/// 29/15 Q1009 NOSIG
RJBB 170500Z 03018KT 9999 FEW030 BKN/// 29/14 Q1009 NOSIG
RJBB 170430Z 03017KT 9999 FEW025 BKN/// 30/14 Q1009 NOSIG
RJBB 170400Z 03016KT 9999 FEW025 BKN/// 30/15 Q1009 NOSIG
RJBB 170330Z 03017KT 9999 FEW025 BKN/// 30/15 Q1010 NOSIG
RJBB 170300Z 03020KT 9999 FEW025 BKN/// 29/15 Q1010 NOSIG
RJBB 170230Z 02012KT 9999 FEW025 SCT/// 29/15 Q1010 NOSIG
RJBB 170200Z 03012KT 9999 FEW020 SCT/// 29/16 Q1010 NOSIG
RJBB 170130Z 03012KT 9999 FEW020 28/16 Q1010 NOSIG
RJBB 170100Z 03013KT 9999 FEW025 28/17 Q1011 NOSIG
RJBB 170030Z 04009KT 9999 FEW025 27/17 Q1011 NOSIG
RJBB 170000Z 04012KT 9999 FEW025 27/18 Q1011 NOSIG
RJBB 162330Z 04013KT 9999 FEW025 26/17 Q1011 NOSIG
RJBB 162300Z 03014KT 9999 FEW025 26/17 Q1011 NOSIG
RJBB 162230Z 03015KT 9999 FEW025 25/18 Q1011 NOSIG
RJBB 162200Z 03016KT 9999 FEW025 25/18 Q1011 NOSIG
RJBB 162130Z 03014KT 9999 FEW025 SCT070 25/18 Q1010 NOSIG
RJBB 162100Z 04014KT 9999 FEW020 BKN070 24/18 Q1010 NOSIG
RJBB 162030Z AUTO 04014KT 9999 NSC 24/17 Q1010 NOSIG
RJBB 162000Z AUTO 04014KT 9999 NSC 24/17 Q1010 NOSIG
RJBB 161930Z AUTO 04014KT 9999 NSC 24/18 Q1010 NOSIG
RJBB 161900Z AUTO 04013KT 9999 NSC 25/18 Q1010 NOSIG
RJBB 161830Z AUTO 04016KT 9999 NSC 25/19 Q1010 NOSIG
RJBB 161800Z AUTO 04016KT 9999 NSC 25/18 Q1010 NOSIG
RJBB 161730Z AUTO 04013KT 9999 NSC 25/19 Q1010 NOSIG
RJBB 161700Z AUTO 03013KT 9999 BKN037 OVC060 26/20 Q1010 NOSIG
RJBB 161630Z AUTO 03013KT 9999 BKN037 OVC080 26/19 Q1010 NOSIG
RJBB 161600Z AUTO 01014KT 9999 BKN031 BKN036 OVC060 26/20 Q1010 NOSIG
RJBB 161530Z AUTO 03012KT 9999 SCT032 BKN036 BKN050 26/20 Q1010 NOSIG
RJBB 161500Z AUTO 04013KT 9999 BKN031 OVC060 26/21 Q1010 NOSIG
RJBB 161430Z AUTO 04010KT 9999 FEW023 SCT030 OVC031 27/22 Q1010 NOSIG
RJBB 161429Z AUTO 04010KT 9999 FEW023 SCT030 OVC031 27/22 Q1010 RMK A2983
RJBB 161400Z AUTO 33005KT 9999 FEW023 SCT025 BKN035 //////TCU 26/23 Q1010 NOSIG
RJBB 161330Z 05009KT 9999 FEW008 BKN060 BKN100 26/23 Q1009 NOSIG
RJBB 161300Z 36007KT 9999 FEW008 BKN060 BKN100 27/23 Q1009 NOSIG
RJBB 161230Z 32005KT 9999 FEW008 SCT015 BKN070 27/25 Q1009 BECMG AT1300 36013KT
RJBB 161200Z 26005KT 230V290 9999 -SHRA FEW015 BKN025 BKN/// 27/25 Q1009 BECMG TL1230 36013KT
RJBB 161130Z 21008KT 9999 FEW015 BKN025 BKN/// 27/25 Q1009 BECMG 36013KT
RJBB 161100Z 22007KT 9999 FEW020 SCT060 BKN/// 27/25 Q1008 NOSIG
RJBB 161030Z 23007KT 9999 FEW020 BKN060 BKN/// 27/25 Q1008 NOSIG
RJBB 161000Z 21009KT 9999 FEW020 BKN060 BKN/// 27/25 Q1008 NOSIG
RJBB 160930Z 21009KT 9999 FEW015 SCT040 BKN100 27/25 Q1008 NOSIG
RJBB 160900Z 21012KT 9999 FEW015 SCT040 BKN100 28/25 Q1008 NOSIG
RJBB 160830Z 22012KT 9999 VCSH FEW015 SCT040 BKN100 28/24 Q1007 NOSIG
RJBB 160800Z 23012KT 9999 -SHRA FEW015 BKN040 BKN120 28/25 Q1007 NOSIG
RJBB 160730Z 24011KT 9999 -SHRA FEW015 BKN040 BKN120 29/25 Q1007 NOSIG
RJBB 160700Z 23013KT 9999 VCSH FEW015 SCT150 BKN/// 29/25 Q1007 NOSIG
RJBB 160630Z 21016KT 9999 -SHRA FEW010 SCT040 BKN/// 29/25 Q1007 NOSIG
RJBB 160600Z 21015KT 9999 -SHRA FEW010 SCT040 BKN100 28/24 Q1008 NOSIG
RJBB 160530Z 22015KT 9999 -SHRA FEW015 SCT040 BKN070 29/25 Q1008 NOSIG
RJBB 160500Z 22015KT 9999 FEW020 SCT070 BKN150 29/26 Q1008 NOSIG
RJBB 160430Z 21019KT 9999 FEW020 BKN150 BKN/// 29/26 Q1008 NOSIG
RJBB 160400Z 21011KT 9999 FEW020 BKN/// 29/25 Q1008 NOSIG
RJBB 160330Z 20016KT 9999 -SHRA FEW010 SCT040 BKN/// 28/25 Q1009 NOSIG
RJBB 160309Z 20015KT 9999 R24L/P2000N R24R/0700VP2000U -SHRA FEW008 SCT030 BKN100 27/26 Q1009 RMK 1ST008 4CU030 5AC100 A2980
RJBB 160300Z 21019KT 8000 R24L/2000N R24R/0700VP2000D +SHRA FEW008 SCT020 BKN030 27/26 Q1009 BECMG NSW
RJBB 160250Z 20019KT 7000 R24L/P2000N R24R/P2000N SHRA FEW010 SCT025 BKN040 27/25 Q1009 RMK 1CU010 3CU025 5CU040 A2981
RJBB 160230Z 20020KT 9999 -SHRA FEW015 FEW025CB SCT040 BKN060 28/25 Q1009 TEMPO TSRA
RJBB 160221Z 20017G27KT 9999 FEW015 FEW025CB SCT040 BKN100 28/25 Q1009 RMK 1CU015 1CB025 3CU040 5AC100 A2981 CB N
RJBB 160200Z 21016KT 9999 FEW015 BKN/// 29/26 Q1009 TEMPO TS
RJBB 160130Z 20020KT 9999 FEW010 BKN/// 30/25 Q1009 NOSIG
RJBB 160100Z 20017KT 9999 FEW010 SCT040 BKN/// 30/26 Q1009 NOSIG
RJBB 160030Z 20021KT 9999 FEW015 SCT040 BKN/// 29/25 Q1009 NOSIG
RJBB 160000Z 20017KT 9999 FEW015 BKN/// 29/25 Q1009 NOSIG
RJBB 152330Z 21018KT 9999 FEW010 SCT020 BKN/// 29/25 Q1009 NOSIG
RJBB 152300Z 21018KT 9999 FEW010 SCT020 BKN/// 29/25 Q1009 NOSIG
RJBB 152230Z 20017KT 9999 FEW010 BKN/// 28/25 Q1009 NOSIG
RJBB 152200Z 20015KT 9999 FEW008 BKN/// 28/25 Q1008 NOSIG
RJBB 152130Z 19014KT 9999 FEW008 BKN/// 28/25 Q1008 NOSIG
RJBB 152100Z 20015KT 9999 VCSH FEW008 SCT030 BKN/// 27/26 Q1009 NOSIG
RJBB 152030Z AUTO 20016KT 9999 FEW015 SCT031 BKN036 //////CB 28/25 Q1009 TEMPO SHRA
RJBB 152000Z AUTO 20010KT 9999 -RA SCT020 BKN027 BKN034 //////CB 27/25 Q1008 NOSIG
RJBB 151930Z AUTO 19013KT 9999 FEW020 BKN140 BKN150 28/25 Q1008 NOSIG
RJBB 151900Z AUTO 21010KT 9999 BKN020 OVC050 28/25 Q1009 NOSIG
RJBB 151830Z AUTO 20009KT 9999 FEW024 SCT025 BKN028 27/25 Q1009 NOSIG
RJBB 151800Z AUTO 18005KT 150V210 9999 FEW024 SCT030 BKN170 27/25 Q1009 NOSIG
RJBB 151730Z AUTO 19005G17KT 160V270 9999 FEW023 SCT028 BKN170 28/25 Q1009 NOSIG
RJBB 151700Z AUTO 19008KT 9999 FEW025 SCT150 28/25 Q1009 NOSIG
RJBB 151630Z AUTO 18008KT 9999 NSC 28/25 Q1009 NOSIG
RJBB 151600Z AUTO 18010KT 9999 NSC 28/25 Q1009 NOSIG
RJBB 151530Z AUTO 20010KT 9999 NSC 28/25 Q1010 NOSIG
RJBB 151500Z AUTO 19010KT 9999 NSC 28/25 Q1010 NOSIG
RJBB 151430Z AUTO 20006KT 9999 SCT026 SCT031 BKN140 28/25 Q1011 NOSIG
RJBB 151400Z AUTO 21006KT 9999 FEW032 BKN140 OVC150 28/25 Q1011 NOSIG
RJBB 151330Z 18008KT 9999 FEW015 SCT120 BKN150 28/25 Q1011 NOSIG